createdAt,value
2023-01-23T00:01:22.402Z,18.23
2023-01-23T00:03:52.350Z,15.32
2023-01-23T00:06:20.031Z,17.40
2023-01-23T00:08:47.942Z,17.70
2023-01-23T00:11:17.698Z,17.10
2023-01-23T00:13:45.994Z,15.85
2023-01-23T00:16:16.384Z,16.33
2023-01-23T00:18:45.348Z,17.67
2023-01-23T00:21:15.908Z,17.38
2023-01-23T00:23:44.787Z,17.10
2023-01-23T00:26:15.524Z,16.73
2023-01-23T00:28:45.540Z,17.38
2023-01-23T00:31:16.508Z,17.20
2023-01-23T00:33:45.492Z,17.00
2023-01-23T00:36:16.217Z,16.10
2023-01-23T00:38:44.032Z,16.33
2023-01-23T00:41:13.276Z,14.80
2023-01-23T00:43:40.924Z,19.27
2023-01-23T00:46:08.601Z,16.63
2023-01-23T00:48:36.289Z,17.40
2023-01-23T00:51:04.111Z,17.38
2023-01-23T00:53:33.353Z,16.95
2023-01-23T00:56:00.949Z,18.05
2023-01-23T00:58:29.268Z,17.42
2023-01-23T01:00:57.874Z,17.20
2023-01-23T01:03:25.839Z,16.00
2023-01-23T01:05:54.379Z,17.13
2023-01-23T01:08:22.123Z,16.98
2023-01-23T01:10:51.265Z,17.63
2023-01-23T01:13:21.400Z,16.35
2023-01-23T01:15:51.315Z,17.77
2023-01-23T01:18:19.860Z,17.13
2023-01-23T01:20:48.801Z,16.10
2023-01-23T01:23:16.883Z,17.90
2023-01-23T01:25:44.745Z,15.88
2023-01-23T01:28:14.605Z,15.65
2023-01-23T01:30:43.735Z,14.60
2023-01-23T01:33:12.531Z,14.13
2023-01-23T01:35:41.477Z,16.30
2023-01-23T01:38:09.750Z,16.02
2023-01-23T01:40:39.670Z,14.68
2023-01-23T01:43:09.111Z,15.55
2023-01-23T01:46:08.270Z,14.00
2023-01-23T01:48:41.055Z,15.25
2023-01-23T01:51:17.021Z,15.70
2023-01-23T01:53:47.862Z,15.18
2023-01-23T01:56:18.708Z,16.17
2023-01-23T01:58:51.324Z,15.57
2023-01-23T02:01:21.067Z,14.70
2023-01-23T02:03:52.436Z,14.52
2023-01-23T02:06:21.025Z,14.32
2023-01-23T02:08:55.280Z,15.88
2023-01-23T02:11:22.822Z,14.98
2023-01-23T02:13:53.478Z,14.98
2023-01-23T02:16:29.397Z,15.50
2023-01-23T02:19:01.857Z,15.73
2023-01-23T02:21:30.248Z,16.67
2023-01-23T02:24:08.152Z,16.77
2023-01-23T02:26:41.263Z,14.98
2023-01-23T02:29:09.960Z,15.50
2023-01-23T02:31:46.067Z,17.40
2023-01-23T02:34:16.375Z,17.23
2023-01-23T02:36:48.573Z,15.75
2023-01-23T02:39:18.389Z,15.40
2023-01-23T02:41:54.239Z,16.25
2023-01-23T02:44:29.336Z,14.43
2023-01-23T02:47:03.366Z,17.30
2023-01-23T02:49:33.264Z,15.50
2023-01-23T02:52:09.621Z,16.95
2023-01-23T02:54:37.856Z,16.30
2023-01-23T02:57:06.811Z,16.80
2023-01-23T02:59:54.280Z,17.77
2023-01-23T03:02:23.341Z,16.15
2023-01-23T03:04:50.960Z,16.88
2023-01-23T03:07:23.279Z,15.98
2023-01-23T03:09:50.958Z,17.75
2023-01-23T03:12:19.830Z,16.70
2023-01-23T03:14:48.471Z,16.80
2023-01-23T03:17:16.120Z,18.35
2023-01-23T03:19:44.259Z,17.20
2023-01-23T03:22:15.249Z,17.38
2023-01-23T03:24:42.879Z,16.00
2023-01-23T03:27:11.432Z,15.73
2023-01-23T03:30:02.729Z,15.65
2023-01-23T03:32:30.870Z,16.48
2023-01-23T03:34:59.650Z,18.13
2023-01-23T03:37:27.412Z,16.60
2023-01-23T03:40:16.217Z,16.27
2023-01-23T03:42:45.638Z,17.55
2023-01-23T03:45:17.919Z,15.05
2023-01-23T03:47:46.171Z,14.65
2023-01-23T03:50:13.765Z,15.18
2023-01-23T03:52:45.276Z,16.05
2023-01-23T03:55:14.586Z,16.98
2023-01-23T03:57:43.328Z,16.27
2023-01-23T04:00:21.934Z,15.77
2023-01-23T04:02:58.283Z,17.80
2023-01-23T04:05:27.236Z,16.08
2023-01-23T04:07:54.798Z,16.40
2023-01-23T04:10:23.498Z,17.52
2023-01-23T04:12:58.630Z,16.08
2023-01-23T04:15:27.993Z,16.50
2023-01-23T04:17:58.063Z,16.60
2023-01-23T04:20:27.004Z,16.75
2023-01-23T04:22:55.691Z,16.35
2023-01-23T04:25:48.479Z,15.38
2023-01-23T04:28:16.917Z,17.95
2023-01-23T04:30:48.053Z,16.85
2023-01-23T04:33:22.009Z,15.25
2023-01-23T04:35:52.431Z,16.48
2023-01-23T04:38:20.827Z,17.42
2023-01-23T04:40:49.438Z,17.85
2023-01-23T04:43:17.400Z,17.63
2023-01-23T04:45:53.743Z,18.10
2023-01-23T04:48:48.820Z,16.95
2023-01-23T04:51:17.769Z,18.63
2023-01-23T04:53:46.611Z,17.58
2023-01-23T04:56:14.681Z,18.23
2023-01-23T04:58:44.248Z,17.83
2023-01-23T05:01:23.019Z,16.10
2023-01-23T05:03:53.188Z,17.52
2023-01-23T05:06:20.876Z,16.80
2023-01-23T05:08:49.857Z,18.63
2023-01-23T05:11:25.044Z,18.35
2023-01-23T05:13:53.041Z,15.80
2023-01-23T05:16:23.359Z,18.35
2023-01-23T05:19:17.378Z,16.88
2023-01-23T05:21:45.588Z,15.70
2023-01-23T05:24:19.417Z,17.67
2023-01-23T05:26:48.909Z,16.88
2023-01-23T05:29:17.651Z,14.15
2023-01-23T05:31:55.076Z,15.20
2023-01-23T05:34:38.309Z,16.00
2023-01-23T05:37:16.758Z,16.80
2023-01-23T05:39:49.306Z,16.00
2023-01-23T05:42:16.981Z,16.65
2023-01-23T05:45:08.477Z,18.25
2023-01-23T05:48:06.013Z,16.05
2023-01-23T05:50:58.224Z,13.95
2023-01-23T05:53:29.262Z,15.10
2023-01-23T05:55:58.332Z,16.30
2023-01-23T05:58:26.045Z,15.85
2023-01-23T06:01:15.338Z,16.65
2023-01-23T06:04:07.365Z,18.58
2023-01-23T06:06:43.793Z,15.95
2023-01-23T06:09:15.267Z,16.98
2023-01-23T06:14:41.835Z,16.23
2023-01-23T06:17:10.264Z,16.27
2023-01-23T06:19:39.398Z,17.50
2023-01-23T06:22:07.059Z,17.05
2023-01-23T06:24:47.214Z,18.50
2023-01-23T06:27:15.094Z,17.73
2023-01-23T06:29:43.295Z,18.83
2023-01-23T06:32:11.072Z,16.23
2023-01-23T06:34:40.475Z,16.58
2023-01-23T06:37:09.237Z,16.58
2023-01-23T06:39:38.237Z,17.02
2023-01-23T06:42:10.065Z,15.75
2023-01-23T06:44:44.796Z,18.63
2023-01-23T06:47:15.635Z,19.77
2023-01-23T06:49:47.012Z,16.93
2023-01-23T06:52:17.253Z,17.48
2023-01-23T06:54:47.586Z,19.63
2023-01-23T06:57:16.686Z,18.38
2023-01-23T06:59:46.645Z,17.90
2023-01-23T07:02:16.615Z,16.73
2023-01-23T07:04:53.302Z,19.80
2023-01-23T07:07:21.051Z,16.98
2023-01-23T07:09:50.466Z,17.38
2023-01-23T07:12:26.309Z,17.33
2023-01-23T07:14:54.742Z,18.58
2023-01-23T07:17:27.233Z,16.38
2023-01-23T07:19:57.038Z,17.70
2023-01-23T07:22:25.857Z,17.20
2023-01-23T07:24:53.633Z,16.40
2023-01-23T07:27:21.340Z,17.67
2023-01-23T07:29:49.234Z,17.90
2023-01-23T07:32:16.807Z,15.75
2023-01-23T07:34:47.715Z,18.52
2023-01-23T07:37:17.271Z,18.25
2023-01-23T07:39:46.317Z,17.83
2023-01-23T07:42:15.257Z,16.90
2023-01-23T07:44:45.120Z,17.02
2023-01-23T07:47:13.253Z,18.10
2023-01-23T07:52:36.265Z,17.95
2023-01-23T07:55:06.271Z,17.60
2023-01-23T07:57:35.667Z,18.02
2023-01-23T08:00:04.514Z,18.90
2023-01-23T08:02:40.167Z,19.23
2023-01-23T08:05:09.363Z,20.00
2023-01-23T08:07:38.973Z,19.13
2023-01-23T08:10:08.355Z,19.55
2023-01-23T08:12:36.819Z,18.45
2023-01-23T08:15:04.699Z,21.00
2023-01-23T08:17:32.294Z,19.33
2023-01-23T08:19:59.837Z,19.00
2023-01-23T08:22:29.265Z,20.75
2023-01-23T08:24:59.345Z,21.52
2023-01-23T08:27:26.907Z,19.98
2023-01-23T08:29:55.247Z,21.05
2023-01-23T08:32:22.987Z,21.88
2023-01-23T08:34:50.633Z,23.40
2023-01-23T08:37:18.250Z,21.70
2023-01-23T08:39:47.145Z,21.20
2023-01-23T08:42:15.995Z,17.90
2023-01-23T08:44:43.540Z,19.65
2023-01-23T08:47:11.290Z,20.20
2023-01-23T08:49:41.331Z,18.45
2023-01-23T08:52:09.756Z,19.33
2023-01-23T08:54:38.271Z,17.63
2023-01-23T08:57:07.137Z,18.58
2023-01-23T08:59:36.072Z,15.23
2023-01-23T09:02:04.715Z,16.15
2023-01-23T09:04:32.327Z,15.32
2023-01-23T09:06:59.888Z,16.48
2023-01-23T09:09:29.986Z,14.70
2023-01-23T09:11:57.545Z,15.65
2023-01-23T09:14:25.198Z,16.80
2023-01-23T09:16:55.286Z,15.63
2023-01-23T09:19:22.869Z,16.02
2023-01-23T09:21:53.427Z,17.00
2023-01-23T09:24:21.037Z,14.75
2023-01-23T09:26:48.639Z,15.40
2023-01-23T09:29:17.257Z,17.92
2023-01-23T09:31:48.382Z,16.02
2023-01-23T09:34:20.337Z,16.15
2023-01-23T09:36:47.918Z,17.08
2023-01-23T09:39:16.256Z,17.85
2023-01-23T09:41:47.327Z,16.05
2023-01-23T09:46:51.006Z,15.98
2023-01-23T09:49:30.247Z,17.15
2023-01-23T09:52:02.553Z,16.65
2023-01-23T09:54:38.141Z,19.08
2023-01-23T09:57:14.288Z,17.83
2023-01-23T09:59:59.051Z,19.27
2023-01-23T10:02:32.124Z,18.05
2023-01-23T10:05:02.746Z,16.83
2023-01-23T10:07:47.273Z,16.88
2023-01-23T10:10:27.853Z,16.85
2023-01-23T10:13:07.948Z,16.83
2023-01-23T10:15:55.255Z,18.20
2023-01-23T10:18:26.861Z,19.80
2023-01-23T10:23:48.453Z,20.70
2023-01-23T10:26:21.666Z,17.90
2023-01-23T10:28:54.848Z,17.70
2023-01-23T10:31:36.656Z,19.58
2023-01-23T10:34:16.263Z,19.00
2023-01-23T10:37:02.264Z,18.35
2023-01-23T10:39:46.729Z,19.48
2023-01-23T10:42:17.340Z,20.63
2023-01-23T10:44:45.682Z,21.65
2023-01-23T10:47:20.990Z,20.65
2023-01-23T10:49:50.286Z,20.52
2023-01-23T10:52:35.608Z,18.92
2023-01-23T10:55:06.109Z,20.50
2023-01-23T10:57:45.273Z,19.17
2023-01-23T11:00:22.316Z,18.48
2023-01-23T11:02:49.996Z,18.27
2023-01-23T11:05:52.767Z,20.52
2023-01-23T11:08:29.030Z,18.80
2023-01-23T11:11:19.440Z,18.00
2023-01-23T11:13:49.043Z,19.80
2023-01-23T11:16:18.448Z,17.95
2023-01-23T11:18:52.978Z,20.15
2023-01-23T11:21:25.453Z,19.75
2023-01-23T11:24:10.257Z,19.70
2023-01-23T11:26:39.556Z,20.77
2023-01-23T11:29:24.645Z,19.15
2023-01-23T11:32:00.434Z,18.73
2023-01-23T11:34:34.372Z,19.85
2023-01-23T11:37:10.274Z,19.80
2023-01-23T11:39:48.052Z,21.92
2023-01-23T11:42:18.460Z,19.10
2023-01-23T11:44:47.251Z,20.13
2023-01-23T11:47:47.267Z,20.48
2023-01-23T11:50:30.523Z,19.58
2023-01-23T11:53:06.254Z,18.92
2023-01-23T11:56:24.727Z,24.65
2023-01-23T11:59:12.302Z,19.70
2023-01-23T12:02:03.081Z,20.48
2023-01-23T12:05:00.783Z,19.37
2023-01-23T12:07:36.271Z,18.42
2023-01-23T12:10:24.264Z,19.02
2023-01-23T12:13:11.541Z,20.73
2023-01-23T12:15:47.347Z,19.45
2023-01-23T12:18:28.555Z,20.77
2023-01-23T12:21:04.177Z,19.40
2023-01-23T12:23:45.526Z,21.13
2023-01-23T12:26:16.044Z,21.02
2023-01-23T12:29:15.523Z,19.80
2023-01-23T12:32:02.955Z,19.42
2023-01-23T12:34:49.288Z,20.75
2023-01-23T12:37:39.225Z,19.05
2023-01-23T12:40:13.847Z,20.00
2023-01-23T12:42:48.552Z,18.27
2023-01-23T12:45:23.067Z,20.90
2023-01-23T12:48:01.689Z,19.08
2023-01-23T12:50:40.392Z,20.55
2023-01-23T12:53:13.197Z,19.10
2023-01-23T12:55:51.260Z,19.77
2023-01-23T12:58:20.104Z,19.75
2023-01-23T13:01:02.498Z,21.30
2023-01-23T13:03:54.857Z,20.73
2023-01-23T13:09:16.679Z,22.27
2023-01-23T13:11:51.404Z,22.15
2023-01-23T13:14:25.560Z,21.70
2023-01-23T13:16:58.748Z,22.08
2023-01-23T13:19:46.851Z,22.35
2023-01-23T13:22:28.616Z,19.63
2023-01-23T13:25:12.715Z,21.88
2023-01-23T13:27:47.126Z,21.77
2023-01-23T13:30:43.348Z,21.42
2023-01-23T13:33:52.179Z,21.35
2023-01-23T13:36:39.495Z,20.73
2023-01-23T13:39:29.299Z,19.77
2023-01-23T13:42:33.176Z,18.83
2023-01-23T13:45:30.975Z,20.27
2023-01-23T14:21:23.702Z,20.27
2023-01-23T14:23:54.072Z,22.23
2023-01-23T14:26:27.883Z,24.38
2023-01-23T14:28:57.956Z,22.90
2023-01-23T14:31:29.121Z,23.25
2023-01-23T14:34:09.817Z,25.17
2023-01-23T14:36:45.316Z,24.02
2023-01-23T14:39:18.929Z,23.00
2023-01-23T14:41:48.227Z,21.23
2023-01-23T14:44:22.134Z,22.13
2023-01-23T14:46:55.343Z,22.15
2023-01-23T14:49:27.585Z,21.88
2023-01-23T14:51:58.717Z,20.83
2023-01-23T14:54:31.805Z,22.47
2023-01-23T14:57:04.310Z,21.05
2023-01-23T14:59:35.516Z,21.80
2023-01-23T15:02:23.513Z,22.05
2023-01-23T15:05:07.683Z,23.23
2023-01-23T15:07:36.785Z,20.80
2023-01-23T15:10:04.711Z,21.88
2023-01-23T15:12:32.292Z,22.92
2023-01-23T15:15:00.217Z,23.38
2023-01-23T15:17:29.363Z,23.25
2023-01-23T15:20:01.616Z,23.42
2023-01-23T15:22:32.531Z,22.45
2023-01-23T15:25:27.257Z,22.90
2023-01-23T15:27:54.876Z,23.90
2023-01-23T15:30:30.659Z,24.15
2023-01-23T15:33:05.952Z,24.05
2023-01-23T15:35:35.255Z,23.50
2023-01-23T15:38:04.866Z,24.55
2023-01-23T15:40:36.711Z,24.65
2023-01-23T15:43:08.304Z,25.45
2023-01-23T15:45:37.302Z,26.25
2023-01-23T15:48:08.296Z,26.33
2023-01-23T15:50:36.311Z,26.17
2023-01-23T15:53:04.531Z,25.27
2023-01-23T15:55:32.078Z,25.23
2023-01-23T15:58:00.136Z,25.35
2023-01-23T16:00:30.469Z,25.02
2023-01-23T16:03:00.358Z,24.42
2023-01-23T16:05:34.833Z,23.00
2023-01-23T16:08:05.648Z,26.73
2023-01-23T16:10:38.400Z,25.55
2023-01-23T16:13:08.234Z,25.42
2023-01-23T16:15:39.460Z,24.15
2023-01-23T16:18:07.494Z,23.53
2023-01-23T16:20:39.951Z,25.58
2023-01-23T16:23:15.439Z,26.10
2023-01-23T16:25:46.004Z,27.20
2023-01-23T16:28:14.895Z,25.58
2023-01-23T16:30:42.816Z,23.02
2023-01-23T16:33:10.423Z,26.45
2023-01-23T16:35:39.682Z,25.65
2023-01-23T16:38:07.890Z,25.65
2023-01-23T16:40:35.717Z,25.95
2023-01-23T16:43:03.613Z,27.95
2023-01-23T16:45:32.737Z,27.08
2023-01-23T16:48:01.258Z,25.42
2023-01-23T16:54:19.264Z,26.73
2023-01-23T16:56:52.651Z,24.13
2023-01-23T16:59:22.698Z,28.60
2023-01-23T17:01:52.793Z,28.25
2023-01-23T17:04:22.438Z,26.45
2023-01-23T17:06:50.896Z,26.48
2023-01-23T17:09:19.925Z,25.42
2023-01-23T17:11:51.488Z,27.02
2023-01-23T17:14:23.730Z,28.27
2023-01-23T17:16:53.098Z,27.02
2023-01-23T17:19:25.140Z,26.38
2023-01-23T17:21:53.275Z,26.60
2023-01-23T17:24:22.251Z,29.65
2023-01-23T17:26:49.807Z,30.48
2023-01-23T17:29:18.418Z,28.55
2023-01-23T17:31:46.541Z,27.42
2023-01-23T17:34:21.800Z,28.33
2023-01-23T17:36:49.827Z,29.90
2023-01-23T17:39:17.426Z,24.27
2023-01-23T17:41:46.644Z,26.88
2023-01-23T17:44:14.678Z,25.92
2023-01-23T17:46:42.411Z,26.35
2023-01-23T17:49:28.941Z,28.92
2023-01-23T17:51:59.608Z,26.27
2023-01-23T17:54:28.743Z,26.60
2023-01-23T17:56:59.965Z,30.48
2023-01-23T17:59:27.921Z,25.45
2023-01-23T18:01:56.889Z,26.52
2023-01-23T18:04:24.512Z,28.70
2023-01-23T18:06:52.204Z,26.63
2023-01-23T18:09:21.241Z,25.50
2023-01-23T18:11:52.322Z,26.23
2023-01-23T18:14:37.480Z,27.05
2023-01-23T18:17:16.246Z,27.63
2023-01-23T18:19:45.273Z,28.13
2023-01-23T18:22:13.344Z,27.67
2023-01-23T18:24:42.276Z,26.67
2023-01-23T18:27:21.262Z,30.92
2023-01-23T18:30:04.469Z,30.42
2023-01-23T18:32:57.598Z,29.55
2023-01-23T18:35:36.990Z,27.77
2023-01-23T18:38:14.161Z,27.75
2023-01-23T18:40:47.460Z,30.90
2023-01-23T18:43:27.157Z,28.40
2023-01-23T18:45:56.785Z,27.52
2023-01-23T18:48:26.061Z,27.52
2023-01-23T18:51:05.885Z,27.60
2023-01-23T18:53:44.826Z,29.00
2023-01-23T18:56:23.528Z,26.20
2023-01-23T18:59:11.811Z,28.08
2023-01-23T19:01:52.160Z,25.52
2023-01-23T19:04:26.359Z,26.67
2023-01-23T19:06:54.593Z,29.85
2023-01-23T19:09:22.841Z,25.13
2023-01-23T19:12:01.296Z,30.60
2023-01-23T19:14:45.330Z,26.52
2023-01-23T19:17:26.271Z,26.67
2023-01-23T19:20:02.402Z,26.35
2023-01-23T19:22:44.022Z,26.85
2023-01-23T19:25:18.317Z,30.45
2023-01-23T19:27:52.586Z,30.15
2023-01-23T19:30:22.601Z,30.88
2023-01-23T19:32:51.587Z,28.90
2023-01-23T19:35:21.334Z,32.47
2023-01-23T19:37:49.131Z,29.23
2023-01-23T19:40:17.769Z,28.10
2023-01-23T19:42:58.633Z,23.98
2023-01-23T19:45:29.482Z,26.27
2023-01-23T19:47:59.825Z,27.75
2023-01-23T19:50:27.435Z,26.13
2023-01-23T19:52:56.758Z,28.25
2023-01-23T19:55:29.250Z,26.55
2023-01-23T19:57:58.246Z,29.13
2023-01-23T20:00:27.455Z,28.38
2023-01-23T20:02:55.189Z,25.67
2023-01-23T20:05:24.781Z,25.23
2023-01-23T20:07:53.840Z,23.83
2023-01-23T20:10:22.485Z,24.50
2023-01-23T20:12:54.264Z,27.02
2023-01-23T20:15:26.963Z,26.58
2023-01-23T20:17:55.313Z,27.97
2023-01-23T20:20:25.275Z,23.60
2023-01-23T20:22:52.885Z,24.17
2023-01-23T20:25:21.177Z,24.13
2023-01-23T20:27:49.458Z,24.13
2023-01-23T20:30:20.392Z,23.52
2023-01-23T20:32:49.958Z,24.95
2023-01-23T20:35:18.150Z,25.50
2023-01-23T20:37:47.125Z,24.42
2023-01-23T20:40:14.713Z,25.60
2023-01-23T20:42:42.409Z,24.55
2023-01-23T20:45:12.074Z,21.60
2023-01-23T20:47:39.647Z,21.40
2023-01-23T20:50:07.950Z,21.55
2023-01-23T20:52:54.170Z,23.20
2023-01-23T20:55:23.661Z,21.80
2023-01-23T20:58:09.501Z,21.30
2023-01-23T21:00:37.537Z,22.25
2023-01-23T21:03:06.364Z,22.08
2023-01-23T21:05:34.018Z,19.90
2023-01-23T21:08:02.623Z,20.13
2023-01-23T21:13:03.347Z,20.75
2023-01-23T21:15:33.142Z,22.23
2023-01-23T21:18:01.328Z,21.23
2023-01-23T21:20:28.971Z,22.17
2023-01-23T21:22:56.812Z,22.38
2023-01-23T21:25:24.641Z,21.63
2023-01-23T21:27:54.374Z,21.40
2023-01-23T21:30:21.976Z,23.02
2023-01-23T21:32:50.431Z,22.10
2023-01-23T21:35:18.192Z,24.60
2023-01-23T21:37:46.489Z,25.05
2023-01-23T21:40:14.748Z,22.77
2023-01-23T21:42:42.448Z,21.70
2023-01-23T21:45:12.313Z,24.88
2023-01-23T21:47:40.854Z,28.38
2023-01-23T21:50:09.994Z,23.02
2023-01-23T21:52:37.827Z,23.17
2023-01-23T21:55:06.310Z,23.70
2023-01-23T21:57:34.314Z,22.98
2023-01-23T22:00:23.142Z,24.25
2023-01-23T22:02:52.373Z,24.90
2023-01-23T22:05:21.123Z,23.58
2023-01-23T22:07:49.375Z,22.65
2023-01-23T22:10:17.381Z,22.38
2023-01-23T22:12:45.376Z,22.15
2023-01-23T22:15:13.001Z,22.60
2023-01-23T22:17:40.597Z,21.50
2023-01-23T22:20:12.438Z,23.15
2023-01-23T22:22:41.048Z,21.75
2023-01-23T22:25:09.876Z,23.33
2023-01-23T22:27:37.428Z,21.00
2023-01-23T22:30:05.565Z,21.02
2023-01-23T22:32:36.274Z,21.38
2023-01-23T22:35:04.307Z,21.35
2023-01-23T22:37:33.157Z,22.02
2023-01-23T22:40:00.745Z,20.70
2023-01-23T22:42:28.734Z,23.13
2023-01-23T22:44:56.432Z,22.80
2023-01-23T22:47:24.015Z,21.20
2023-01-23T22:49:51.610Z,22.17
2023-01-23T22:52:19.207Z,22.20
2023-01-23T22:54:48.061Z,20.92
2023-01-23T22:57:15.778Z,20.23
2023-01-23T22:59:43.309Z,21.65
2023-01-23T23:02:11.237Z,22.00
2023-01-23T23:04:39.125Z,19.77
2023-01-23T23:07:06.985Z,21.95
2023-01-23T23:09:34.777Z,20.92
2023-01-23T23:12:03.804Z,19.23
2023-01-23T23:14:31.510Z,18.42
2023-01-23T23:16:59.485Z,18.83
2023-01-23T23:19:27.245Z,18.58
2023-01-23T23:21:56.257Z,20.15
2023-01-23T23:24:49.549Z,17.00
2023-01-23T23:27:18.516Z,17.45
2023-01-23T23:29:46.316Z,17.45
2023-01-23T23:32:13.878Z,19.25
2023-01-23T23:34:44.424Z,18.67
2023-01-23T23:37:12.056Z,17.30
2023-01-23T23:39:39.590Z,16.45
2023-01-23T23:42:07.289Z,15.77
2023-01-23T23:44:36.265Z,15.80
2023-01-23T23:47:04.946Z,16.00
2023-01-23T23:49:33.260Z,14.00
2023-01-23T23:52:00.835Z,13.80
2023-01-23T23:54:28.557Z,15.70
2023-01-23T23:56:56.139Z,14.93
2023-01-23T23:59:23.803Z,15.23
